Time;durP1;ratioP1;P1;durP2;ratioP2;P2;SDS_P1;SDS_P2;PMS_P1;PMS_P2;Temp;Humidity;BMP_temperature;BMP_pressure;BME280_temperature;BME280_humidity;BME280_pressure;Samples;Min_cycle;Max_cycle;Signal;HPM_P1;HPM_P2
2023/08/14 00:00:24;;;;;;;21.58;18.27;;;14.70;99.90;;;;;;4998546;28;20091;-64
2023/08/14 00:02:49;;;;;;;26.38;21.40;;;14.90;99.90;;;;;;5031503;28;20037;-64
2023/08/14 00:05:15;;;;;;;24.23;20.27;;;14.70;99.90;;;;;;5030925;28;20037;-64
2023/08/14 00:07:41;;;;;;;24.33;20.08;;;15.10;99.90;;;;;;5015814;28;20045;-64
2023/08/14 00:10:07;;;;;;;22.15;19.75;;;14.80;99.90;;;;;;5031524;28;20140;-64
2023/08/14 00:12:32;;;;;;;23.35;19.20;;;15.00;99.90;;;;;;4998789;28;20570;-64
2023/08/14 00:14:58;;;;;;;23.23;17.50;;;15.00;99.90;;;;;;5031240;28;20052;-64
2023/08/14 00:17:24;;;;;;;23.45;18.70;;;15.00;99.90;;;;;;5014216;28;20857;-64
2023/08/14 00:19:49;;;;;;;20.67;18.45;;;14.70;99.90;;;;;;5031574;28;20227;-64
2023/08/14 00:22:15;;;;;;;26.95;18.80;;;15.00;99.90;;;;;;5031286;28;20518;-63
2023/08/14 00:24:41;;;;;;;21.42;17.60;;;14.80;99.90;;;;;;5031493;28;20071;-64
2023/08/14 00:27:06;;;;;;;23.00;19.25;;;14.80;99.90;;;;;;5032638;28;20063;-63
2023/08/14 00:29:32;;;;;;;23.00;19.83;;;14.60;99.90;;;;;;5032594;28;20566;-63
2023/08/14 00:31:59;;;;;;;21.65;17.67;;;14.60;99.90;;;;;;5013729;28;20045;-64
2023/08/14 00:34:24;;;;;;;25.33;18.67;;;14.60;99.90;;;;;;5033279;28;20553;-63
2023/08/14 00:36:50;;;;;;;25.00;18.23;;;14.70;99.90;;;;;;5031542;28;20037;-65
2023/08/14 00:39:16;;;;;;;21.13;18.77;;;14.60;99.90;;;;;;5014067;28;20725;-65
2023/08/14 00:41:41;;;;;;;22.52;18.63;;;14.70;99.90;;;;;;5030086;28;20056;-64
2023/08/14 00:44:07;;;;;;;23.13;20.27;;;14.90;99.90;;;;;;5030158;28;20055;-63
2023/08/14 00:46:33;;;;;;;24.48;19.10;;;14.60;99.90;;;;;;5032360;28;20738;-63
2023/08/14 00:48:59;;;;;;;19.80;17.08;;;14.60;99.90;;;;;;5031336;28;20617;-64
2023/08/14 00:51:25;;;;;;;23.67;18.33;;;14.80;99.90;;;;;;5030483;28;20522;-63
2023/08/14 00:53:53;;;;;;;22.70;20.25;;;14.50;99.90;;;;;;5030886;28;20045;-65
2023/08/14 00:56:19;;;;;;;23.65;19.38;;;14.40;99.90;;;;;;5032621;28;20478;-64
2023/08/14 00:58:47;;;;;;;25.63;18.75;;;14.30;99.90;;;;;;5031258;28;20044;-63
2023/08/14 01:01:12;;;;;;;20.42;17.50;;;14.60;99.90;;;;;;5029925;28;20211;-63
2023/08/14 01:03:39;;;;;;;19.95;17.77;;;14.50;99.90;;;;;;5029669;28;20402;-63
2023/08/14 01:06:05;;;;;;;24.17;20.08;;;14.50;99.90;;;;;;5030370;28;20474;-64
2023/08/14 01:08:32;;;;;;;23.52;17.50;;;14.60;99.90;;;;;;5032132;28;20376;-63
2023/08/14 01:11:29;;;;;;;22.85;19.17;;;14.40;99.90;;;;;;5013353;28;20041;-64
2023/08/14 01:14:13;;;;;;;24.55;18.35;;;14.30;99.90;;;;;;5030348;28;20194;-64
2023/08/14 01:16:43;;;;;;;23.65;18.27;;;14.20;99.90;;;;;;5029384;28;20545;-64
2023/08/14 01:19:21;;;;;;;26.25;19.10;;;14.50;99.90;;;;;;5029144;28;20252;-64
2023/08/14 01:22:16;;;;;;;29.00;19.73;;;14.50;99.90;;;;;;5029152;28;20102;-64
2023/08/14 01:24:55;;;;;;;24.67;19.63;;;14.50;99.90;;;;;;5029503;28;20052;-62
2023/08/14 01:27:22;;;;;;;25.08;18.80;;;14.30;99.90;;;;;;5030870;28;20040;-64
2023/08/14 01:30:07;;;;;;;24.52;19.60;;;14.10;99.90;;;;;;5030395;28;20102;-64
2023/08/14 01:32:33;;;;;;;23.20;18.65;;;14.30;99.90;;;;;;5029155;28;20140;-64
2023/08/14 01:34:59;;;;;;;24.08;19.67;;;14.10;99.90;;;;;;5029093;28;20079;-64
2023/08/14 01:37:32;;;;;;;22.33;19.08;;;14.10;99.90;;;;;;5030519;28;20208;-64
2023/08/14 01:40:32;;;;;;;31.83;20.25;;;14.10;99.90;;;;;;5029806;28;20060;-64
2023/08/14 01:43:13;;;;;;;24.77;18.70;;;14.30;99.90;;;;;;5022284;28;20049;-63
2023/08/14 01:45:41;;;;;;;24.65;19.80;;;14.00;99.90;;;;;;5029949;28;20109;-63
2023/08/14 01:48:08;;;;;;;26.98;20.33;;;14.30;99.90;;;;;;5028797;28;20040;-64
2023/08/14 01:50:36;;;;;;;23.02;19.75;;;14.00;99.90;;;;;;5029676;28;20056;-64
2023/08/14 01:53:01;;;;;;;24.08;20.52;;;14.30;99.90;;;;;;5029306;28;20036;-64
2023/08/14 01:55:27;;;;;;;27.58;22.15;;;14.00;99.90;;;;;;5030722;28;20500;-64
2023/08/14 01:57:53;;;;;;;28.10;20.10;;;14.20;99.90;;;;;;5031385;28;20048;-64
2023/08/14 02:00:19;;;;;;;26.52;21.33;;;14.20;99.90;;;;;;5013266;28;20044;-64
2023/08/14 02:02:46;;;;;;;28.05;21.65;;;14.20;99.90;;;;;;5030232;28;20041;-63
2023/08/14 02:05:12;;;;;;;30.52;22.00;;;14.20;99.90;;;;;;4997298;28;20180;-63
2023/08/14 02:07:38;;;;;;;24.55;20.60;;;14.10;99.90;;;;;;5028636;28;20040;-63
2023/08/14 02:10:05;;;;;;;29.40;22.42;;;14.00;99.90;;;;;;5013137;28;20045;-64
2023/08/14 02:12:30;;;;;;;26.30;22.42;;;14.20;99.90;;;;;;5028790;28;20185;-64
2023/08/14 02:14:57;;;;;;;30.67;22.88;;;14.30;99.90;;;;;;5029824;28;20049;-64
2023/08/14 02:17:22;;;;;;;22.88;20.48;;;13.90;99.90;;;;;;5033206;28;20061;-64
2023/08/14 02:19:48;;;;;;;30.73;21.55;;;14.10;99.90;;;;;;5033376;28;20059;-63
2023/08/14 02:22:14;;;;;;;21.80;19.40;;;14.00;99.90;;;;;;5032524;28;20045;-64
2023/08/14 02:24:39;;;;;;;22.00;17.95;;;13.90;99.90;;;;;;5032481;28;20300;-64
2023/08/14 02:27:05;;;;;;;27.52;20.83;;;13.90;99.90;;;;;;5032088;28;20062;-64
2023/08/14 02:29:31;;;;;;;22.45;18.98;;;14.00;99.90;;;;;;5016554;28;20618;-64
2023/08/14 02:31:56;;;;;;;29.02;20.13;;;14.20;99.90;;;;;;5015353;28;20109;-63
2023/08/14 02:34:42;;;;;;;20.83;17.67;;;13.90;99.90;;;;;;5032411;28;20045;-63
2023/08/14 02:37:08;;;;;;;22.90;18.85;;;13.90;99.90;;;;;;5032222;28;20045;-64
2023/08/14 02:39:34;;;;;;;22.75;19.77;;;14.20;99.90;;;;;;5033599;28;20056;-64
2023/08/14 02:42:00;;;;;;;29.67;19.80;;;14.20;99.90;;;;;;5016709;28;20513;-64
2023/08/14 02:44:25;;;;;;;24.83;18.73;;;13.90;99.90;;;;;;5033035;28;20187;-63
2023/08/14 02:46:52;;;;;;;25.30;20.27;;;13.90;99.90;;;;;;5032528;28;20483;-64
2023/08/14 02:49:18;;;;;;;32.05;21.67;;;14.00;99.90;;;;;;5016859;28;20640;-63
2023/08/14 02:51:44;;;;;;;24.80;18.63;;;14.00;99.90;;;;;;5033222;28;20053;-63
2023/08/14 02:54:10;;;;;;;27.33;20.40;;;13.90;99.90;;;;;;5034659;28;20548;-63
2023/08/14 02:56:35;;;;;;;29.15;20.17;;;14.10;99.90;;;;;;5033571;28;20124;-63
2023/08/14 02:59:01;;;;;;;26.58;20.10;;;13.90;99.90;;;;;;5016285;28;20037;-63
2023/08/14 03:01:26;;;;;;;26.30;19.77;;;13.90;99.90;;;;;;5033922;28;20045;-64
2023/08/14 03:03:52;;;;;;;28.25;20.08;;;14.20;99.90;;;;;;5031757;28;20080;-64
2023/08/14 03:06:18;;;;;;;23.98;19.33;;;14.20;99.90;;;;;;5031838;28;20048;-64
2023/08/14 03:08:45;;;;;;;22.83;19.13;;;13.90;99.90;;;;;;5032514;28;20128;-63
2023/08/14 03:11:12;;;;;;;27.50;18.15;;;14.30;99.90;;;;;;5032806;28;20222;-64
2023/08/14 03:13:38;;;;;;;25.90;21.40;;;14.30;99.90;;;;;;5015931;28;20099;-63
2023/08/14 03:16:03;;;;;;;23.73;18.30;;;14.10;99.90;;;;;;5032114;28;20147;-63
2023/08/14 03:18:29;;;;;;;29.85;18.98;;;14.00;99.90;;;;;;5015699;28;20045;-64
2023/08/14 03:20:56;;;;;;;24.27;17.92;;;14.10;99.90;;;;;;5032354;28;20110;-64
2023/08/14 03:23:22;;;;;;;20.23;18.05;;;13.80;99.90;;;;;;5031980;28;20037;-65
2023/08/14 03:25:48;;;;;;;27.73;19.90;;;14.00;99.90;;;;;;5033055;28;20091;-64
2023/08/14 03:28:14;;;;;;;27.33;18.77;;;13.80;99.90;;;;;;5031817;28;20119;-63
2023/08/14 03:30:40;;;;;;;24.73;18.85;;;13.70;99.90;;;;;;5015512;28;20596;-64
2023/08/14 03:33:06;;;;;;;21.40;18.73;;;14.00;99.90;;;;;;5032582;28;20211;-64
2023/08/14 03:35:32;;;;;;;27.77;20.17;;;13.70;99.90;;;;;;5031338;28;20040;-64
2023/08/14 03:37:57;;;;;;;25.45;20.83;;;14.10;99.90;;;;;;5031541;28;20423;-64
2023/08/14 03:40:26;;;;;;;22.65;18.77;;;13.90;99.90;;;;;;5015410;28;20770;-64
2023/08/14 03:42:52;;;;;;;28.35;18.75;;;13.70;99.90;;;;;;5033040;28;20151;-64
2023/08/14 03:45:18;;;;;;;26.50;19.60;;;13.70;99.90;;;;;;5014903;28;20033;-63
2023/08/14 03:47:44;;;;;;;24.75;19.30;;;14.00;99.90;;;;;;5014677;28;20462;-64
2023/08/14 03:50:09;;;;;;;27.80;19.83;;;13.80;99.90;;;;;;5033359;28;20045;-64
2023/08/14 03:52:36;;;;;;;21.88;18.95;;;14.00;99.90;;;;;;5033328;28;20570;-65
2023/08/14 03:55:02;;;;;;;23.67;21.05;;;13.70;99.90;;;;;;5031654;28;20135;-64
2023/08/14 03:57:28;;;;;;;25.13;19.38;;;13.70;99.90;;;;;;5031413;28;20337;-64
2023/08/14 03:59:53;;;;;;;27.48;19.80;;;14.00;99.90;;;;;;5030413;28;20685;-64
2023/08/14 04:02:19;;;;;;;26.70;19.42;;;13.60;99.90;;;;;;5030837;28;20200;-65
2023/08/14 04:04:45;;;;;;;25.90;18.98;;;14.00;99.90;;;;;;5015034;28;20052;-65
2023/08/14 04:07:10;;;;;;;26.80;20.40;;;14.00;99.90;;;;;;5013677;28;20033;-64
2023/08/14 04:09:36;;;;;;;22.95;19.45;;;13.70;99.90;;;;;;5032224;28;20113;-65
2023/08/14 04:12:02;;;;;;;24.98;19.63;;;13.90;99.90;;;;;;5031750;28;20033;-63
2023/08/14 04:14:28;;;;;;;25.85;20.45;;;14.20;99.90;;;;;;5030701;28;20355;-63
2023/08/14 04:16:54;;;;;;;25.70;20.00;;;14.00;99.90;;;;;;5009934;28;20535;-64
2023/08/14 04:19:20;;;;;;;26.75;21.02;;;13.80;99.90;;;;;;5030588;28;20117;-65
2023/08/14 04:21:46;;;;;;;25.85;19.98;;;14.10;99.90;;;;;;5014062;28;20040;-64
2023/08/14 04:24:12;;;;;;;28.05;20.75;;;14.00;99.90;;;;;;5031115;28;20371;-65
2023/08/14 04:26:38;;;;;;;28.38;22.42;;;13.80;99.90;;;;;;5031321;28;20067;-64
2023/08/14 04:29:06;;;;;;;23.83;20.33;;;13.80;99.90;;;;;;5030471;28;20064;-64
2023/08/14 04:31:36;;;;;;;27.98;21.77;;;13.90;99.90;;;;;;5014127;28;20087;-64
2023/08/14 04:34:02;;;;;;;26.52;20.88;;;14.30;99.90;;;;;;5029887;28;20622;-65
2023/08/14 04:36:31;;;;;;;27.85;20.52;;;14.20;99.90;;;;;;5031040;28;20153;-63
2023/08/14 04:38:56;;;;;;;22.10;19.42;;;14.00;99.90;;;;;;5029273;28;20049;-64
2023/08/14 04:41:23;;;;;;;25.23;20.48;;;14.20;99.90;;;;;;5030482;28;20056;-64
2023/08/14 04:43:49;;;;;;;24.95;18.85;;;14.20;99.90;;;;;;5031304;28;20029;-64
2023/08/14 04:46:29;;;;;;;23.05;18.83;;;14.40;99.90;;;;;;5014042;28;20041;-64
2023/08/14 04:48:57;;;;;;;27.17;19.55;;;14.40;99.90;;;;;;5030647;28;20106;-64
2023/08/14 04:51:22;;;;;;;25.70;19.10;;;14.50;99.90;;;;;;5030772;28;20060;-64
2023/08/14 04:53:48;;;;;;;22.02;18.38;;;14.20;99.90;;;;;;5030896;28;20411;-65
2023/08/14 04:56:14;;;;;;;21.50;18.27;;;14.20;99.90;;;;;;5029454;28;20548;-64
2023/08/14 04:58:39;;;;;;;25.40;19.25;;;14.20;99.90;;;;;;5029667;28;20103;-64
2023/08/14 05:01:05;;;;;;;23.48;19.10;;;14.30;99.90;;;;;;5012930;28;20425;-64
2023/08/14 05:03:31;;;;;;;23.58;19.00;;;14.50;99.90;;;;;;5029728;28;20463;-64
2023/08/14 05:05:56;;;;;;;22.60;19.15;;;14.80;99.90;;;;;;4995424;28;20055;-65
2023/08/14 05:08:22;;;;;;;22.65;18.30;;;14.60;99.90;;;;;;5029729;28;20112;-64
2023/08/14 05:10:52;;;;;;;21.73;18.00;;;14.40;99.90;;;;;;5028379;28;20041;-64
2023/08/14 05:13:18;;;;;;;22.45;17.95;;;14.50;99.90;;;;;;5028223;28;20404;-64
2023/08/14 05:15:46;;;;;;;21.10;18.45;;;14.70;99.90;;;;;;5010191;28;20042;-64
2023/08/14 05:18:12;;;;;;;22.23;17.25;;;14.70;99.90;;;;;;5028300;28;20045;-65
2023/08/14 05:20:38;;;;;;;21.52;17.67;;;15.00;99.90;;;;;;5011543;28;20041;-64
2023/08/14 05:23:04;;;;;;;22.88;17.95;;;15.30;99.90;;;;;;5028834;28;20217;-65
2023/08/14 05:25:30;;;;;;;24.50;17.42;;;15.40;99.90;;;;;;5028398;28;20041;-64
2023/08/14 05:27:55;;;;;;;23.60;17.33;;;15.50;99.90;;;;;;4993940;28;20426;-64
2023/08/14 05:30:21;;;;;;;20.58;15.75;;;15.10;99.90;;;;;;5029650;28;20099;-64
2023/08/14 05:32:47;;;;;;;18.10;16.30;;;15.40;99.90;;;;;;5014327;28;20041;-63
2023/08/14 05:35:15;;;;;;;22.15;17.00;;;15.50;99.90;;;;;;5014197;28;20050;-64
2023/08/14 05:37:41;;;;;;;23.77;18.27;;;15.70;99.90;;;;;;5012519;28;20055;-64
2023/08/14 05:40:07;;;;;;;20.98;15.80;;;15.30;99.90;;;;;;5028824;28;20491;-65
2023/08/14 05:42:33;;;;;;;21.23;16.60;;;15.50;99.90;;;;;;5028759;28;20053;-64
2023/08/14 05:44:59;;;;;;;20.52;15.88;;;15.60;99.90;;;;;;4995815;28;20560;-64
2023/08/14 05:47:26;;;;;;;18.02;14.13;;;15.40;99.90;;;;;;5029038;28;20040;-64
2023/08/14 05:49:52;;;;;;;18.40;15.25;;;15.50;99.90;;;;;;5029311;28;20057;-63
2023/08/14 05:52:18;;;;;;;19.23;14.85;;;16.00;99.90;;;;;;5028755;28;20343;-64
2023/08/14 05:54:43;;;;;;;17.20;15.38;;;15.80;99.90;;;;;;5029055;28;20051;-63
2023/08/14 05:57:09;;;;;;;16.67;14.90;;;15.80;99.90;;;;;;5012103;28;20109;-64
2023/08/14 05:59:35;;;;;;;15.57;13.98;;;16.00;99.90;;;;;;5028303;28;20333;-64
2023/08/14 06:02:00;;;;;;;18.55;14.70;;;16.10;99.90;;;;;;5029314;28;20072;-63
2023/08/14 06:04:26;;;;;;;18.33;13.38;;;16.30;99.90;;;;;;5012641;28;20130;-64
2023/08/14 06:06:53;;;;;;;15.88;12.77;;;16.30;99.90;;;;;;5011381;28;20057;-64
2023/08/14 06:09:19;;;;;;;14.65;13.13;;;16.30;99.90;;;;;;5028525;28;20121;-63
2023/08/14 06:11:45;;;;;;;18.90;13.98;;;16.20;99.90;;;;;;5011847;28;20044;-65
2023/08/14 06:14:11;;;;;;;14.48;11.68;;;16.30;99.90;;;;;;5028656;28;20670;-64
2023/08/14 06:16:37;;;;;;;16.70;12.98;;;16.20;99.90;;;;;;5027879;28;20473;-64
2023/08/14 06:19:02;;;;;;;14.93;12.02;;;16.30;99.90;;;;;;5028375;28;20044;-64
2023/08/14 06:21:28;;;;;;;14.43;13.13;;;16.60;99.90;;;;;;5011400;28;20048;-64
2023/08/14 06:23:54;;;;;;;13.90;12.43;;;16.50;99.90;;;;;;5028599;28;20111;-63
2023/08/14 06:26:21;;;;;;;14.55;12.63;;;16.60;99.90;;;;;;4995849;28;20037;-64
2023/08/14 06:28:46;;;;;;;17.75;12.93;;;16.50;99.90;;;;;;5028123;28;20033;-63
2023/08/14 06:31:13;;;;;;;14.40;11.57;;;16.40;99.90;;;;;;5027816;28;20093;-65
2023/08/14 06:33:38;;;;;;;19.77;11.57;;;16.50;99.90;;;;;;5028792;28;20056;-64
2023/08/14 06:36:05;;;;;;;17.58;11.63;;;16.50;99.90;;;;;;5011744;28;20049;-65
2023/08/14 06:38:30;;;;;;;13.15;11.75;;;16.90;99.90;;;;;;5027635;28;20043;-65
2023/08/14 06:40:56;;;;;;;14.23;11.05;;;16.70;99.90;;;;;;5011102;28;20053;-64
2023/08/14 06:43:22;;;;;;;12.88;11.02;;;16.80;99.90;;;;;;5029118;28;20037;-65
2023/08/14 06:45:47;;;;;;;10.52;9.52;;;17.20;99.90;;;;;;5027881;28;20957;-64
2023/08/14 06:48:14;;;;;;;12.90;10.23;;;17.30;99.90;;;;;;5028331;28;20057;-64
2023/08/14 06:50:40;;;;;;;11.57;10.38;;;17.20;99.90;;;;;;5029366;28;20049;-65
2023/08/14 06:53:05;;;;;;;11.43;10.23;;;17.60;99.90;;;;;;4994703;28;20139;-64
2023/08/14 06:55:31;;;;;;;11.82;9.77;;;17.50;99.90;;;;;;4994359;28;20047;-65
2023/08/14 06:57:57;;;;;;;11.85;10.02;;;17.60;99.90;;;;;;5027147;28;20830;-64
2023/08/14 07:00:23;;;;;;;11.25;9.60;;;17.60;99.90;;;;;;5026902;28;20037;-66
2023/08/14 07:02:48;;;;;;;13.10;10.45;;;17.80;99.90;;;;;;5029529;28;20037;-64
2023/08/14 07:05:14;;;;;;;12.63;9.32;;;17.50;99.90;;;;;;5014768;28;20075;-64
2023/08/14 07:07:40;;;;;;;11.70;9.65;;;17.50;99.90;;;;;;5047095;28;20033;-64
2023/08/14 07:10:07;;;;;;;11.25;10.00;;;17.60;99.90;;;;;;5014324;28;20272;-64
2023/08/14 07:12:33;;;;;;;11.95;9.40;;;17.80;99.90;;;;;;5031250;28;20643;-64
2023/08/14 07:15:00;;;;;;;11.85;9.55;;;17.80;99.90;;;;;;5032031;28;20041;-64
2023/08/14 07:17:26;;;;;;;11.18;9.07;;;17.90;99.90;;;;;;5031195;28;20791;-65
2023/08/14 07:19:52;;;;;;;13.52;8.65;;;18.00;99.90;;;;;;5030525;28;20041;-63
2023/08/14 07:22:18;;;;;;;11.30;8.90;;;18.40;99.90;;;;;;5031302;28;20129;-64
2023/08/14 07:24:44;;;;;;;12.05;8.30;;;18.20;99.90;;;;;;5030419;28;20461;-65
2023/08/14 07:27:10;;;;;;;11.32;8.57;;;18.30;99.90;;;;;;5030295;28;20044;-64
2023/08/14 07:29:36;;;;;;;10.38;8.95;;;18.50;99.90;;;;;;5030658;28;20051;-64
2023/08/14 07:32:02;;;;;;;12.18;8.73;;;18.50;99.90;;;;;;5031012;28;20343;-64
2023/08/14 07:34:28;;;;;;;12.35;7.43;;;18.40;99.90;;;;;;5014413;28;20128;-64
2023/08/14 07:36:54;;;;;;;13.90;8.05;;;18.60;99.90;;;;;;5013459;28;20047;-63
2023/08/14 07:39:20;;;;;;;17.70;7.72;;;18.90;99.90;;;;;;5031449;28;20045;-63
2023/08/14 07:41:45;;;;;;;11.10;6.30;;;19.40;99.90;;;;;;5030111;28;20057;-64
2023/08/14 07:44:11;;;;;;;7.30;6.00;;;19.70;99.90;;;;;;5014045;28;20036;-65
2023/08/14 07:46:37;;;;;;;7.75;6.20;;;20.00;99.90;;;;;;5031582;28;20040;-64
2023/08/14 07:49:02;;;;;;;10.73;5.35;;;20.20;99.90;;;;;;5014661;28;20296;-63
2023/08/14 07:51:28;;;;;;;8.77;5.30;;;20.60;99.90;;;;;;5030934;28;20358;-64
2023/08/14 07:53:54;;;;;;;6.00;4.13;;;20.90;99.90;;;;;;5030786;28;20048;-63
2023/08/14 07:56:20;;;;;;;6.43;4.28;;;21.30;99.90;;;;;;5014018;28;20056;-64
2023/08/14 07:58:45;;;;;;;5.60;4.38;;;21.30;99.90;;;;;;5030554;28;20428;-64
2023/08/14 08:01:11;;;;;;;8.75;4.45;;;21.50;99.90;;;;;;5031942;28;20204;-63
2023/08/14 08:03:37;;;;;;;9.00;4.40;;;21.50;99.90;;;;;;5032034;28;20041;-64
2023/08/14 08:06:02;;;;;;;7.75;4.28;;;21.50;99.90;;;;;;5029810;28;20037;-64
2023/08/14 08:08:28;;;;;;;6.47;3.90;;;21.50;99.90;;;;;;5013199;28;20040;-63
2023/08/14 08:10:54;;;;;;;5.10;3.70;;;21.60;99.90;;;;;;5029931;28;20602;-63
2023/08/14 08:13:19;;;;;;;6.05;3.78;;;21.80;99.90;;;;;;5029234;28;20045;-64
2023/08/14 08:15:46;;;;;;;8.02;3.90;;;21.70;99.90;;;;;;5030173;28;20343;-64
2023/08/14 08:18:13;;;;;;;5.68;3.92;;;21.70;99.90;;;;;;5033060;28;20742;-63
2023/08/14 08:20:39;;;;;;;6.22;4.00;;;21.40;99.90;;;;;;5013724;28;20132;-63
2023/08/14 08:23:04;;;;;;;6.15;3.78;;;21.40;99.90;;;;;;5031584;28;20033;-64
2023/08/14 08:25:30;;;;;;;6.70;4.07;;;21.30;99.90;;;;;;5030118;28;20256;-64
2023/08/14 08:27:56;;;;;;;8.02;4.78;;;21.20;99.90;;;;;;5030077;28;20223;-64
2023/08/14 08:30:22;;;;;;;8.15;4.10;;;21.30;99.90;;;;;;5014055;28;20055;-64
2023/08/14 08:32:47;;;;;;;7.13;4.07;;;21.60;99.90;;;;;;5030563;28;20045;-63
2023/08/14 08:35:13;;;;;;;9.73;4.30;;;21.80;99.90;;;;;;5030238;28;20422;-63
2023/08/14 08:37:39;;;;;;;7.40;3.97;;;21.90;99.90;;;;;;5013484;28;20305;-63
2023/08/14 08:40:06;;;;;;;5.95;3.38;;;22.00;99.90;;;;;;5031382;28;20037;-64
2023/08/14 08:42:32;;;;;;;6.07;3.50;;;22.40;99.90;;;;;;5029417;28;20093;-64
2023/08/14 08:45:02;;;;;;;7.82;3.40;;;22.40;99.90;;;;;;5031666;28;20277;-63
2023/08/14 08:47:29;;;;;;;5.85;3.08;;;22.60;99.90;;;;;;5030692;28;20125;-63
2023/08/14 08:49:56;;;;;;;4.43;2.97;;;22.70;99.90;;;;;;5029869;28;20041;-63
2023/08/14 08:52:22;;;;;;;4.43;1.55;;;22.90;99.90;;;;;;5013289;28;20045;-63
2023/08/14 08:54:48;;;;;;;3.55;1.20;;;23.00;99.90;;;;;;4996687;28;20135;-64
2023/08/14 08:57:16;;;;;;;5.05;0.80;;;23.30;99.90;;;;;;5029888;28;20123;-64
2023/08/14 08:59:43;;;;;;;4.07;0.90;;;23.40;99.90;;;;;;5013440;28;20656;-64
2023/08/14 09:02:09;;;;;;;3.30;1.10;;;23.70;99.90;;;;;;5029541;28;20182;-64
2023/08/14 09:04:34;;;;;;;2.97;0.90;;;23.80;99.90;;;;;;5029887;28;20440;-65
2023/08/14 09:07:00;;;;;;;4.15;1.20;;;24.20;99.90;;;;;;5012197;28;20037;-63
2023/08/14 09:09:26;;;;;;;4.00;1.05;;;24.20;99.90;;;;;;5029119;28;20041;-63
2023/08/14 09:11:51;;;;;;;4.07;0.57;;;24.50;99.90;;;;;;5029210;28;20041;-64
2023/08/14 09:14:17;;;;;;;4.13;0.50;;;24.90;99.90;;;;;;5012745;28;20048;-65
2023/08/14 09:16:47;;;;;;;5.45;0.50;;;24.90;99.90;;;;;;5012657;28;20120;-64
2023/08/14 09:19:16;;;;;;;3.40;0.40;;;25.50;99.00;;;;;;5030536;28;20477;-63
2023/08/14 09:21:44;;;;;;;3.63;0.50;;;25.50;71.30;;;;;;5030423;28;20045;-64
2023/08/14 09:24:13;;;;;;;4.38;0.30;;;25.20;30.90;;;;;;5029803;28;20493;-65
2023/08/14 09:26:41;;;;;;;1.85;0.38;;;24.60;27.80;;;;;;5012347;28;20040;-63
2023/08/14 09:29:07;;;;;;;3.13;0.50;;;24.20;41.40;;;;;;4996025;28;20628;-64
2023/08/14 09:31:33;;;;;;;2.80;0.40;;;23.80;66.20;;;;;;5029275;28;20078;-64
2023/08/14 09:34:00;;;;;;;2.75;0.40;;;23.60;66.90;;;;;;5029017;28;20283;-64
2023/08/14 09:36:33;;;;;;;3.53;0.35;;;23.80;81.80;;;;;;5028275;28;20052;-65
2023/08/14 09:38:59;;;;;;;3.72;0.40;;;24.30;68.80;;;;;;5011943;28;20179;-65
2023/08/14 09:41:25;;;;;;;4.95;0.38;;;25.10;65.30;;;;;;5028744;28;20229;-64
2023/08/14 09:43:50;;;;;;;2.95;0.30;;;25.50;47.80;;;;;;5029163;28;20689;-65
2023/08/14 09:46:18;;;;;;;3.67;0.30;;;25.50;14.30;;;;;;5029156;28;20256;-64
2023/08/14 09:48:45;;;;;;;3.17;0.40;;;25.40;1.00;;;;;;5012276;28;20408;-64
2023/08/14 09:51:14;;;;;;;3.60;0.35;;;25.60;1.00;;;;;;5012564;28;20099;-64
2023/08/14 09:53:50;;;;;;;3.10;0.40;;;25.80;1.00;;;;;;5010921;28;20048;-64
2023/08/14 09:56:17;;;;;;;2.67;0.40;;;25.80;1.00;;;;;;5031438;28;20204;-64
2023/08/14 09:58:43;;;;;;;4.25;0.50;;;25.70;1.00;;;;;;5028756;28;21536;-64
2023/08/14 10:01:12;;;;;;;3.15;0.40;;;25.80;1.00;;;;;;5028669;28;20044;-64
2023/08/14 10:03:40;;;;;;;2.72;0.32;;;26.20;1.00;;;;;;5027592;28;20055;-65
2023/08/14 10:06:09;;;;;;;1.63;0.20;;;26.20;1.00;;;;;;5026544;28;20308;-64
2023/08/14 10:08:36;;;;;;;3.35;0.30;;;26.40;1.00;;;;;;5027823;28;20546;-64
2023/08/14 10:11:07;;;;;;;3.22;0.30;;;26.60;1.00;;;;;;5027533;28;20053;-64
2023/08/14 10:13:38;;;;;;;3.15;0.40;;;26.80;1.00;;;;;;5012046;28;20044;-65
2023/08/14 10:16:09;;;;;;;3.33;0.40;;;26.60;1.00;;;;;;5029616;28;20029;-65
2023/08/14 10:18:38;;;;;;;3.38;0.40;;;26.40;1.00;;;;;;4998995;28;20380;-66
2023/08/14 10:21:07;;;;;;;1.88;0.25;;;26.80;1.00;;;;;;5027465;28;20131;-65
2023/08/14 10:23:34;;;;;;;1.65;0.20;;;26.70;1.00;;;;;;5027504;28;20313;-62
2023/08/14 10:26:00;;;;;;;1.77;0.20;;;26.50;1.00;;;;;;5027807;28;20380;-64
2023/08/14 10:28:26;;;;;;;2.78;0.30;;;26.30;1.00;;;;;;5010924;28;20045;-63
2023/08/14 10:30:52;;;;;;;3.03;0.30;;;26.20;1.00;;;;;;5027074;28;20049;-64
2023/08/14 10:33:20;;;;;;;1.83;0.22;;;26.40;1.00;;;;;;5029334;28;20068;-64
2023/08/14 10:35:58;;;;;;;1.63;0.38;;;26.40;1.00;;;;;;5010585;28;20037;-64
2023/08/14 10:38:46;;;;;;;3.53;0.30;;;26.40;1.00;;;;;;5029840;28;20479;-65
2023/08/14 10:41:14;;;;;;;1.73;0.20;;;26.10;1.00;;;;;;5031808;28;20381;-64
2023/08/14 10:43:52;;;;;;;1.70;0.20;;;26.10;1.00;;;;;;5030994;28;20057;-64
2023/08/14 10:46:21;;;;;;;2.67;0.30;;;26.10;1.00;;;;;;5031860;28;20091;-64
2023/08/14 10:48:52;;;;;;;1.90;0.20;;;26.00;1.00;;;;;;5031445;28;20072;-66
2023/08/14 10:51:21;;;;;;;1.50;0.20;;;26.30;1.00;;;;;;5033628;28;20064;-64
2023/08/14 10:53:46;;;;;;;2.58;0.40;;;26.50;1.00;;;;;;5031621;28;20098;-65
2023/08/14 10:56:13;;;;;;;2.65;0.28;;;26.60;1.00;;;;;;5031834;28;20402;-65
2023/08/14 10:58:44;;;;;;;1.73;0.25;;;27.00;1.00;;;;;;5032088;28;20250;-65
2023/08/14 11:01:11;;;;;;;2.72;0.30;;;27.10;1.00;;;;;;5015045;28;20029;-65
2023/08/14 11:03:56;;;;;;;4.03;0.30;;;27.40;1.00;;;;;;5032252;28;20534;-65
2023/08/14 11:06:27;;;;;;;1.73;0.20;;;27.70;1.00;;;;;;5031204;28;20119;-64
2023/08/14 11:09:04;;;;;;;1.90;0.30;;;28.00;1.00;;;;;;4998874;28;20029;-65
2023/08/14 11:11:30;;;;;;;2.78;0.30;;;27.90;1.00;;;;;;5015312;28;20063;-65
2023/08/14 11:13:56;;;;;;;4.13;0.45;;;28.00;1.00;;;;;;5031701;28;20033;-64
2023/08/14 11:16:22;;;;;;;3.45;0.47;;;28.10;1.00;;;;;;5033236;28;20388;-63
2023/08/14 11:18:48;;;;;;;2.55;0.30;;;28.00;1.00;;;;;;5031352;28;20358;-64
2023/08/14 11:21:14;;;;;;;2.65;0.30;;;28.30;1.00;;;;;;5031584;28;20053;-64
2023/08/14 11:23:40;;;;;;;4.25;0.50;;;28.30;1.00;;;;;;5015076;28;20029;-65
2023/08/14 11:26:05;;;;;;;2.83;0.30;;;27.90;1.00;;;;;;5015182;28;20037;-65
2023/08/14 11:28:32;;;;;;;2.53;0.40;;;28.00;1.00;;;;;;5031656;28;20048;-65
2023/08/14 11:30:59;;;;;;;2.15;0.22;;;28.20;1.00;;;;;;5031640;28;20434;-65
2023/08/14 11:33:25;;;;;;;3.80;0.30;;;28.50;1.00;;;;;;5028862;28;20049;-65
2023/08/14 11:35:54;;;;;;;1.08;0.30;;;28.50;1.00;;;;;;5014455;28;20045;-65
2023/08/14 11:38:22;;;;;;;3.08;0.20;;;28.20;1.00;;;;;;5030948;28;20515;-65
2023/08/14 11:40:48;;;;;;;2.00;0.30;;;28.10;1.00;;;;;;5031556;28;20260;-64
2023/08/14 11:43:15;;;;;;;2.80;0.38;;;27.80;1.00;;;;;;5030879;28;20223;-64
2023/08/14 11:45:41;;;;;;;2.20;0.30;;;27.40;1.00;;;;;;5030716;28;20126;-64
2023/08/14 11:48:08;;;;;;;3.00;0.22;;;27.10;1.00;;;;;;5030267;28;20092;-64
2023/08/14 11:50:34;;;;;;;1.50;0.20;;;27.60;1.00;;;;;;5030622;28;20333;-65
2023/08/14 11:53:01;;;;;;;2.33;0.32;;;28.10;1.00;;;;;;5030904;28;20052;-65
2023/08/14 11:55:29;;;;;;;2.20;0.30;;;28.50;1.00;;;;;;5030792;28;20062;-64
2023/08/14 11:57:59;;;;;;;2.78;0.57;;;28.60;1.00;;;;;;5032178;28;20161;-64
2023/08/14 12:00:26;;;;;;;1.60;0.30;;;28.40;1.00;;;;;;5030443;28;20044;-65
2023/08/14 12:02:53;;;;;;;2.58;0.50;;;28.50;1.00;;;;;;5030692;28;20147;-64
2023/08/14 12:05:20;;;;;;;2.75;0.30;;;28.50;1.00;;;;;;5029715;28;20081;-64
2023/08/14 12:07:45;;;;;;;2.88;0.40;;;28.90;1.00;;;;;;5030630;28;20109;-64
2023/08/14 12:10:15;;;;;;;2.25;0.40;;;28.90;1.00;;;;;;4997888;28;20053;-64
2023/08/14 12:12:40;;;;;;;1.75;0.30;;;29.10;1.00;;;;;;5030121;28;20045;-64
2023/08/14 12:15:07;;;;;;;2.30;0.30;;;29.10;1.00;;;;;;5031416;28;20541;-65
2023/08/14 12:17:33;;;;;;;1.88;0.40;;;29.10;1.00;;;;;;4996822;28;20098;-64
2023/08/14 12:20:03;;;;;;;3.03;0.35;;;29.20;1.00;;;;;;5029740;28;20333;-65
2023/08/14 12:22:31;;;;;;;2.58;0.40;;;29.30;1.00;;;;;;5030649;28;20048;-65
2023/08/14 12:24:57;;;;;;;2.35;0.30;;;29.20;1.00;;;;;;5029466;28;20045;-65
2023/08/14 12:27:23;;;;;;;4.07;0.40;;;29.30;1.00;;;;;;5030318;28;20044;-65
2023/08/14 12:29:50;;;;;;;2.22;0.40;;;29.80;1.00;;;;;;5029949;28;20115;-64
2023/08/14 12:32:17;;;;;;;2.60;0.20;;;29.80;1.00;;;;;;5030114;28;20127;-65
2023/08/14 12:34:44;;;;;;;1.73;0.30;;;30.00;1.00;;;;;;5030842;28;20507;-65
2023/08/14 12:37:14;;;;;;;3.60;0.38;;;29.70;1.00;;;;;;5013246;28;20101;-65